sensor_id;sensor_type;location;lat;lon;timestamp;P1;durP1;ratioP1;P2;durP2;ratioP2
26325;SDS011;14032;52.510;7.342;2023-02-13T00:01:03;43.92;;;26.20;;
26325;SDS011;14032;52.510;7.342;2023-02-13T00:03:29;50.22;;;27.38;;
26325;SDS011;14032;52.510;7.342;2023-02-13T00:05:55;41.35;;;24.75;;
26325;SDS011;14032;52.510;7.342;2023-02-13T00:08:20;43.15;;;24.27;;
26325;SDS011;14032;52.510;7.342;2023-02-13T00:10:46;38.55;;;23.88;;
26325;SDS011;14032;52.510;7.342;2023-02-13T00:13:13;45.90;;;25.48;;
26325;SDS011;14032;52.510;7.342;2023-02-13T00:15:39;45.28;;;26.02;;
26325;SDS011;14032;52.510;7.342;2023-02-13T00:18:04;42.88;;;24.70;;
26325;SDS011;14032;52.510;7.342;2023-02-13T00:20:30;45.03;;;25.05;;
26325;SDS011;14032;52.510;7.342;2023-02-13T00:22:57;52.38;;;27.05;;
26325;SDS011;14032;52.510;7.342;2023-02-13T00:25:23;44.90;;;24.75;;
26325;SDS011;14032;52.510;7.342;2023-02-13T00:27:50;50.40;;;26.42;;
26325;SDS011;14032;52.510;7.342;2023-02-13T00:30:17;48.83;;;25.77;;
26325;SDS011;14032;52.510;7.342;2023-02-13T00:32:44;43.38;;;25.25;;
26325;SDS011;14032;52.510;7.342;2023-02-13T00:35:09;42.28;;;24.02;;
26325;SDS011;14032;52.510;7.342;2023-02-13T00:37:35;49.55;;;24.80;;
26325;SDS011;14032;52.510;7.342;2023-02-13T00:40:01;45.50;;;25.42;;
26325;SDS011;14032;52.510;7.342;2023-02-13T00:42:26;44.65;;;24.45;;
26325;SDS011;14032;52.510;7.342;2023-02-13T00:44:52;44.63;;;24.48;;
26325;SDS011;14032;52.510;7.342;2023-02-13T00:47:18;44.85;;;24.98;;
26325;SDS011;14032;52.510;7.342;2023-02-13T00:49:44;45.05;;;24.38;;
26325;SDS011;14032;52.510;7.342;2023-02-13T00:52:10;44.92;;;23.63;;
26325;SDS011;14032;52.510;7.342;2023-02-13T00:54:38;45.22;;;24.05;;
26325;SDS011;14032;52.510;7.342;2023-02-13T00:57:04;41.63;;;23.92;;
26325;SDS011;14032;52.510;7.342;2023-02-13T00:59:29;50.53;;;25.27;;
26325;SDS011;14032;52.510;7.342;2023-02-13T01:01:55;42.90;;;24.45;;
26325;SDS011;14032;52.510;7.342;2023-02-13T01:04:20;39.42;;;22.60;;
26325;SDS011;14032;52.510;7.342;2023-02-13T01:06:46;40.85;;;22.85;;
26325;SDS011;14032;52.510;7.342;2023-02-13T01:09:11;43.75;;;24.27;;
26325;SDS011;14032;52.510;7.342;2023-02-13T01:11:37;40.08;;;23.15;;
26325;SDS011;14032;52.510;7.342;2023-02-13T01:14:03;36.00;;;21.92;;
26325;SDS011;14032;52.510;7.342;2023-02-13T01:16:29;38.25;;;22.90;;
26325;SDS011;14032;52.510;7.342;2023-02-13T01:18:55;38.97;;;21.55;;
26325;SDS011;14032;52.510;7.342;2023-02-13T01:21:20;43.80;;;23.13;;
26325;SDS011;14032;52.510;7.342;2023-02-13T01:23:47;39.25;;;22.55;;
26325;SDS011;14032;52.510;7.342;2023-02-13T01:26:20;44.35;;;23.17;;
26325;SDS011;14032;52.510;7.342;2023-02-13T01:28:47;47.80;;;23.23;;
26325;SDS011;14032;52.510;7.342;2023-02-13T01:31:16;42.22;;;22.65;;
26325;SDS011;14032;52.510;7.342;2023-02-13T01:33:42;37.80;;;21.60;;
26325;SDS011;14032;52.510;7.342;2023-02-13T01:36:08;43.45;;;23.13;;
26325;SDS011;14032;52.510;7.342;2023-02-13T01:38:35;43.10;;;22.42;;
26325;SDS011;14032;52.510;7.342;2023-02-13T01:41:01;37.05;;;21.77;;
26325;SDS011;14032;52.510;7.342;2023-02-13T01:43:44;42.53;;;23.40;;
26325;SDS011;14032;52.510;7.342;2023-02-13T01:46:20;42.35;;;23.70;;
26325;SDS011;14032;52.510;7.342;2023-02-13T01:48:53;40.70;;;21.70;;
26325;SDS011;14032;52.510;7.342;2023-02-13T01:51:24;37.67;;;21.77;;
26325;SDS011;14032;52.510;7.342;2023-02-13T01:54:03;42.80;;;22.42;;
26325;SDS011;14032;52.510;7.342;2023-02-13T01:56:36;36.00;;;20.58;;
26325;SDS011;14032;52.510;7.342;2023-02-13T01:59:28;41.33;;;21.35;;
26325;SDS011;14032;52.510;7.342;2023-02-13T02:01:59;37.78;;;21.70;;
26325;SDS011;14032;52.510;7.342;2023-02-13T02:04:31;39.05;;;21.92;;
26325;SDS011;14032;52.510;7.342;2023-02-13T02:07:01;40.17;;;23.33;;
26325;SDS011;14032;52.510;7.342;2023-02-13T02:09:34;37.77;;;21.67;;
26325;SDS011;14032;52.510;7.342;2023-02-13T02:14:36;41.38;;;21.23;;
26325;SDS011;14032;52.510;7.342;2023-02-13T02:17:04;39.63;;;22.92;;
26325;SDS011;14032;52.510;7.342;2023-02-13T02:31:07;34.95;;;20.90;;
26325;SDS011;14032;52.510;7.342;2023-02-13T02:39:15;43.25;;;22.77;;
26325;SDS011;14032;52.510;7.342;2023-02-13T02:52:47;40.75;;;23.08;;
26325;SDS011;14032;52.510;7.342;2023-02-13T02:55:37;40.13;;;22.90;;
26325;SDS011;14032;52.510;7.342;2023-02-13T02:58:31;45.25;;;24.20;;
26325;SDS011;14032;52.510;7.342;2023-02-13T03:01:42;44.58;;;22.55;;
26325;SDS011;14032;52.510;7.342;2023-02-13T03:04:39;42.90;;;22.65;;
26325;SDS011;14032;52.510;7.342;2023-02-13T03:07:29;44.08;;;22.55;;
26325;SDS011;14032;52.510;7.342;2023-02-13T03:09:57;46.10;;;23.55;;
26325;SDS011;14032;52.510;7.342;2023-02-13T03:15:37;40.75;;;24.20;;
26325;SDS011;14032;52.510;7.342;2023-02-13T03:18:25;42.92;;;23.55;;
26325;SDS011;14032;52.510;7.342;2023-02-13T03:21:15;43.13;;;23.55;;
26325;SDS011;14032;52.510;7.342;2023-02-13T03:29:44;42.38;;;23.73;;
26325;SDS011;14032;52.510;7.342;2023-02-13T03:38:41;43.67;;;22.92;;
26325;SDS011;14032;52.510;7.342;2023-02-13T03:46:53;42.83;;;22.45;;
26325;SDS011;14032;52.510;7.342;2023-02-13T03:49:24;45.47;;;23.95;;
26325;SDS011;14032;52.510;7.342;2023-02-13T03:55:06;41.80;;;23.23;;
26325;SDS011;14032;52.510;7.342;2023-02-13T03:57:55;45.63;;;23.70;;
26325;SDS011;14032;52.510;7.342;2023-02-13T04:00:43;41.97;;;24.30;;
26325;SDS011;14032;52.510;7.342;2023-02-13T04:03:21;42.03;;;23.42;;
26325;SDS011;14032;52.510;7.342;2023-02-13T04:06:05;37.88;;;21.48;;
26325;SDS011;14032;52.510;7.342;2023-02-13T04:08:58;43.03;;;23.38;;
26325;SDS011;14032;52.510;7.342;2023-02-13T04:11:32;38.90;;;22.17;;
26325;SDS011;14032;52.510;7.342;2023-02-13T04:14:06;43.70;;;23.65;;
26325;SDS011;14032;52.510;7.342;2023-02-13T04:17:11;42.83;;;23.58;;
26325;SDS011;14032;52.510;7.342;2023-02-13T04:19:41;45.40;;;23.25;;
26325;SDS011;14032;52.510;7.342;2023-02-13T04:22:07;41.42;;;22.55;;
26325;SDS011;14032;52.510;7.342;2023-02-13T04:24:35;41.05;;;23.13;;
26325;SDS011;14032;52.510;7.342;2023-02-13T04:27:01;46.55;;;23.70;;
26325;SDS011;14032;52.510;7.342;2023-02-13T04:29:27;45.30;;;24.30;;
26325;SDS011;14032;52.510;7.342;2023-02-13T04:31:52;37.47;;;21.45;;
26325;SDS011;14032;52.510;7.342;2023-02-13T04:34:18;46.08;;;23.77;;
26325;SDS011;14032;52.510;7.342;2023-02-13T04:36:44;39.70;;;22.10;;
26325;SDS011;14032;52.510;7.342;2023-02-13T04:39:10;40.13;;;22.02;;
26325;SDS011;14032;52.510;7.342;2023-02-13T04:41:36;46.20;;;24.38;;
26325;SDS011;14032;52.510;7.342;2023-02-13T04:44:01;41.38;;;22.75;;
26325;SDS011;14032;52.510;7.342;2023-02-13T04:46:27;47.97;;;24.92;;
26325;SDS011;14032;52.510;7.342;2023-02-13T04:48:53;38.63;;;22.33;;
26325;SDS011;14032;52.510;7.342;2023-02-13T04:51:18;44.83;;;23.98;;
26325;SDS011;14032;52.510;7.342;2023-02-13T04:53:44;45.53;;;25.05;;
26325;SDS011;14032;52.510;7.342;2023-02-13T04:56:09;42.70;;;23.70;;
26325;SDS011;14032;52.510;7.342;2023-02-13T04:58:35;43.72;;;22.90;;
26325;SDS011;14032;52.510;7.342;2023-02-13T05:01:01;46.03;;;24.08;;
26325;SDS011;14032;52.510;7.342;2023-02-13T05:03:26;41.08;;;22.85;;
26325;SDS011;14032;52.510;7.342;2023-02-13T05:05:52;45.40;;;22.90;;
26325;SDS011;14032;52.510;7.342;2023-02-13T05:08:18;41.40;;;23.25;;
26325;SDS011;14032;52.510;7.342;2023-02-13T05:10:44;45.40;;;23.95;;
26325;SDS011;14032;52.510;7.342;2023-02-13T05:13:09;43.85;;;23.50;;
26325;SDS011;14032;52.510;7.342;2023-02-13T05:15:36;43.75;;;22.25;;
26325;SDS011;14032;52.510;7.342;2023-02-13T05:18:01;43.58;;;23.65;;
26325;SDS011;14032;52.510;7.342;2023-02-13T05:20:27;43.58;;;23.48;;
26325;SDS011;14032;52.510;7.342;2023-02-13T05:22:53;45.55;;;24.00;;
26325;SDS011;14032;52.510;7.342;2023-02-13T05:25:38;42.30;;;23.10;;
26325;SDS011;14032;52.510;7.342;2023-02-13T05:28:05;41.33;;;23.00;;
26325;SDS011;14032;52.510;7.342;2023-02-13T05:30:55;46.25;;;25.00;;
26325;SDS011;14032;52.510;7.342;2023-02-13T05:33:21;38.65;;;21.33;;
26325;SDS011;14032;52.510;7.342;2023-02-13T05:35:46;36.90;;;20.77;;
26325;SDS011;14032;52.510;7.342;2023-02-13T05:38:12;50.85;;;26.65;;
26325;SDS011;14032;52.510;7.342;2023-02-13T05:40:38;48.40;;;25.38;;
26325;SDS011;14032;52.510;7.342;2023-02-13T05:43:03;46.47;;;26.48;;
26325;SDS011;14032;52.510;7.342;2023-02-13T05:45:29;47.15;;;26.77;;
26325;SDS011;14032;52.510;7.342;2023-02-13T05:47:55;50.58;;;27.27;;
26325;SDS011;14032;52.510;7.342;2023-02-13T05:50:20;42.63;;;24.70;;
26325;SDS011;14032;52.510;7.342;2023-02-13T05:52:46;42.05;;;24.52;;
26325;SDS011;14032;52.510;7.342;2023-02-13T05:55:12;44.95;;;25.10;;
26325;SDS011;14032;52.510;7.342;2023-02-13T05:57:38;48.03;;;24.42;;
26325;SDS011;14032;52.510;7.342;2023-02-13T06:00:03;47.15;;;25.00;;
26325;SDS011;14032;52.510;7.342;2023-02-13T06:02:30;47.80;;;26.02;;
26325;SDS011;14032;52.510;7.342;2023-02-13T06:04:55;48.03;;;26.15;;
26325;SDS011;14032;52.510;7.342;2023-02-13T06:07:21;46.63;;;26.17;;
26325;SDS011;14032;52.510;7.342;2023-02-13T06:09:46;49.15;;;27.15;;
26325;SDS011;14032;52.510;7.342;2023-02-13T06:12:13;43.10;;;24.05;;
26325;SDS011;14032;52.510;7.342;2023-02-13T06:14:39;44.22;;;26.13;;
26325;SDS011;14032;52.510;7.342;2023-02-13T06:17:04;53.30;;;25.73;;
26325;SDS011;14032;52.510;7.342;2023-02-13T06:19:30;52.75;;;26.55;;
26325;SDS011;14032;52.510;7.342;2023-02-13T06:21:55;43.72;;;23.55;;
26325;SDS011;14032;52.510;7.342;2023-02-13T06:24:21;50.30;;;27.75;;
26325;SDS011;14032;52.510;7.342;2023-02-13T06:26:46;45.33;;;26.58;;
26325;SDS011;14032;52.510;7.342;2023-02-13T06:29:12;45.10;;;24.27;;
26325;SDS011;14032;52.510;7.342;2023-02-13T06:31:37;47.72;;;27.13;;
26325;SDS011;14032;52.510;7.342;2023-02-13T06:34:03;42.15;;;25.23;;
26325;SDS011;14032;52.510;7.342;2023-02-13T06:36:29;44.88;;;24.90;;
26325;SDS011;14032;52.510;7.342;2023-02-13T06:38:54;44.08;;;24.73;;
26325;SDS011;14032;52.510;7.342;2023-02-13T06:41:20;41.72;;;24.98;;
26325;SDS011;14032;52.510;7.342;2023-02-13T06:43:46;41.03;;;23.33;;
26325;SDS011;14032;52.510;7.342;2023-02-13T06:46:11;49.40;;;25.73;;
26325;SDS011;14032;52.510;7.342;2023-02-13T06:48:37;43.42;;;24.65;;
26325;SDS011;14032;52.510;7.342;2023-02-13T06:51:03;42.72;;;24.98;;
26325;SDS011;14032;52.510;7.342;2023-02-13T06:53:29;45.00;;;25.13;;
26325;SDS011;14032;52.510;7.342;2023-02-13T06:55:55;43.58;;;26.13;;
26325;SDS011;14032;52.510;7.342;2023-02-13T06:58:21;42.58;;;24.40;;
26325;SDS011;14032;52.510;7.342;2023-02-13T07:00:48;42.35;;;23.95;;
26325;SDS011;14032;52.510;7.342;2023-02-13T07:03:15;40.63;;;25.55;;
26325;SDS011;14032;52.510;7.342;2023-02-13T07:05:41;43.60;;;25.27;;
26325;SDS011;14032;52.510;7.342;2023-02-13T07:08:08;41.65;;;24.70;;
26325;SDS011;14032;52.510;7.342;2023-02-13T07:10:38;42.92;;;25.33;;
26325;SDS011;14032;52.510;7.342;2023-02-13T07:13:05;46.97;;;25.80;;
26325;SDS011;14032;52.510;7.342;2023-02-13T07:15:32;46.35;;;27.85;;
26325;SDS011;14032;52.510;7.342;2023-02-13T07:17:58;44.25;;;26.45;;
26325;SDS011;14032;52.510;7.342;2023-02-13T07:20:26;41.00;;;24.13;;
26325;SDS011;14032;52.510;7.342;2023-02-13T07:22:52;40.05;;;25.50;;
26325;SDS011;14032;52.510;7.342;2023-02-13T07:25:18;41.72;;;25.20;;
26325;SDS011;14032;52.510;7.342;2023-02-13T07:27:43;47.00;;;28.80;;
26325;SDS011;14032;52.510;7.342;2023-02-13T07:30:10;47.03;;;27.83;;
26325;SDS011;14032;52.510;7.342;2023-02-13T07:32:35;49.88;;;27.92;;
26325;SDS011;14032;52.510;7.342;2023-02-13T07:35:01;46.70;;;26.25;;
26325;SDS011;14032;52.510;7.342;2023-02-13T07:37:28;40.83;;;26.23;;
26325;SDS011;14032;52.510;7.342;2023-02-13T07:39:54;39.28;;;24.63;;
26325;SDS011;14032;52.510;7.342;2023-02-13T07:42:20;50.17;;;28.77;;
26325;SDS011;14032;52.510;7.342;2023-02-13T07:44:46;44.55;;;26.98;;
26325;SDS011;14032;52.510;7.342;2023-02-13T07:47:11;48.60;;;26.63;;
26325;SDS011;14032;52.510;7.342;2023-02-13T07:49:37;40.50;;;25.58;;
26325;SDS011;14032;52.510;7.342;2023-02-13T07:52:03;45.13;;;26.52;;
26325;SDS011;14032;52.510;7.342;2023-02-13T07:54:29;46.05;;;27.08;;
26325;SDS011;14032;52.510;7.342;2023-02-13T07:56:55;39.03;;;25.83;;
26325;SDS011;14032;52.510;7.342;2023-02-13T07:59:21;41.15;;;25.60;;
26325;SDS011;14032;52.510;7.342;2023-02-13T08:01:47;41.53;;;25.70;;
26325;SDS011;14032;52.510;7.342;2023-02-13T08:04:12;40.00;;;26.50;;
26325;SDS011;14032;52.510;7.342;2023-02-13T08:06:38;44.95;;;26.63;;
26325;SDS011;14032;52.510;7.342;2023-02-13T08:09:05;45.47;;;28.25;;
26325;SDS011;14032;52.510;7.342;2023-02-13T08:11:49;44.15;;;28.33;;
26325;SDS011;14032;52.510;7.342;2023-02-13T08:14:17;41.13;;;27.45;;
26325;SDS011;14032;52.510;7.342;2023-02-13T08:16:47;41.35;;;26.85;;
26325;SDS011;14032;52.510;7.342;2023-02-13T08:19:13;42.67;;;27.42;;
26325;SDS011;14032;52.510;7.342;2023-02-13T08:21:39;39.72;;;25.75;;
26325;SDS011;14032;52.510;7.342;2023-02-13T08:24:04;37.72;;;24.15;;
26325;SDS011;14032;52.510;7.342;2023-02-13T08:26:31;39.13;;;26.15;;
26325;SDS011;14032;52.510;7.342;2023-02-13T08:28:57;38.17;;;25.80;;
26325;SDS011;14032;52.510;7.342;2023-02-13T08:31:23;40.78;;;25.65;;
26325;SDS011;14032;52.510;7.342;2023-02-13T08:33:49;41.33;;;25.80;;
26325;SDS011;14032;52.510;7.342;2023-02-13T08:36:14;37.70;;;24.88;;
26325;SDS011;14032;52.510;7.342;2023-02-13T08:38:40;38.38;;;25.25;;
26325;SDS011;14032;52.510;7.342;2023-02-13T08:41:06;43.33;;;27.58;;
26325;SDS011;14032;52.510;7.342;2023-02-13T08:43:32;40.60;;;25.73;;
26325;SDS011;14032;52.510;7.342;2023-02-13T08:45:58;37.88;;;25.60;;
26325;SDS011;14032;52.510;7.342;2023-02-13T08:48:24;35.95;;;24.58;;
26325;SDS011;14032;52.510;7.342;2023-02-13T08:50:50;34.75;;;22.80;;
26325;SDS011;14032;52.510;7.342;2023-02-13T08:53:16;35.72;;;23.27;;
26325;SDS011;14032;52.510;7.342;2023-02-13T08:55:41;36.35;;;25.08;;
26325;SDS011;14032;52.510;7.342;2023-02-13T08:58:07;38.10;;;24.73;;
26325;SDS011;14032;52.510;7.342;2023-02-13T09:00:33;39.25;;;24.63;;
26325;SDS011;14032;52.510;7.342;2023-02-13T09:02:59;38.33;;;24.63;;
26325;SDS011;14032;52.510;7.342;2023-02-13T09:05:26;37.38;;;24.50;;
26325;SDS011;14032;52.510;7.342;2023-02-13T09:07:53;41.25;;;24.58;;
26325;SDS011;14032;52.510;7.342;2023-02-13T09:10:18;37.92;;;24.60;;
26325;SDS011;14032;52.510;7.342;2023-02-13T09:12:50;37.83;;;25.10;;
26325;SDS011;14032;52.510;7.342;2023-02-13T09:15:16;46.28;;;28.92;;
26325;SDS011;14032;52.510;7.342;2023-02-13T09:17:42;92.63;;;52.58;;
26325;SDS011;14032;52.510;7.342;2023-02-13T09:20:08;41.80;;;26.40;;
26325;SDS011;14032;52.510;7.342;2023-02-13T09:22:33;46.72;;;29.15;;
26325;SDS011;14032;52.510;7.342;2023-02-13T09:24:59;41.08;;;27.35;;
26325;SDS011;14032;52.510;7.342;2023-02-13T09:27:28;38.33;;;24.10;;
26325;SDS011;14032;52.510;7.342;2023-02-13T09:29:54;35.63;;;23.00;;
26325;SDS011;14032;52.510;7.342;2023-02-13T09:32:20;32.28;;;21.60;;
26325;SDS011;14032;52.510;7.342;2023-02-13T09:34:45;35.55;;;23.92;;
26325;SDS011;14032;52.510;7.342;2023-02-13T09:37:11;32.90;;;22.35;;
26325;SDS011;14032;52.510;7.342;2023-02-13T09:39:37;33.47;;;21.88;;
26325;SDS011;14032;52.510;7.342;2023-02-13T09:42:03;35.80;;;23.83;;
26325;SDS011;14032;52.510;7.342;2023-02-13T09:44:52;34.10;;;21.60;;
26325;SDS011;14032;52.510;7.342;2023-02-13T09:49:54;36.63;;;22.83;;
26325;SDS011;14032;52.510;7.342;2023-02-13T09:52:38;34.85;;;22.92;;
26325;SDS011;14032;52.510;7.342;2023-02-13T09:55:14;32.65;;;21.65;;
26325;SDS011;14032;52.510;7.342;2023-02-13T09:58:08;33.78;;;23.40;;
26325;SDS011;14032;52.510;7.342;2023-02-13T10:00:43;33.00;;;21.73;;
26325;SDS011;14032;52.510;7.342;2023-02-13T10:05:59;33.53;;;21.85;;
26325;SDS011;14032;52.510;7.342;2023-02-13T10:17:03;34.55;;;22.27;;
26325;SDS011;14032;52.510;7.342;2023-02-13T10:19:52;38.40;;;23.75;;
26325;SDS011;14032;52.510;7.342;2023-02-13T10:22:42;30.42;;;21.70;;
26325;SDS011;14032;52.510;7.342;2023-02-13T10:27:57;32.35;;;21.63;;
26325;SDS011;14032;52.510;7.342;2023-02-13T10:30:33;32.28;;;21.52;;
26325;SDS011;14032;52.510;7.342;2023-02-13T10:33:16;34.35;;;22.63;;
26325;SDS011;14032;52.510;7.342;2023-02-13T10:38:16;38.33;;;26.08;;
26325;SDS011;14032;52.510;7.342;2023-02-13T10:41:11;36.40;;;23.67;;
26325;SDS011;14032;52.510;7.342;2023-02-13T10:43:37;32.30;;;22.63;;
26325;SDS011;14032;52.510;7.342;2023-02-13T10:46:21;36.47;;;22.83;;
26325;SDS011;14032;52.510;7.342;2023-02-13T10:49:38;32.03;;;22.08;;
26325;SDS011;14032;52.510;7.342;2023-02-13T10:52:16;29.30;;;21.55;;
26325;SDS011;14032;52.510;7.342;2023-02-13T11:00:41;34.75;;;22.65;;
26325;SDS011;14032;52.510;7.342;2023-02-13T11:03:33;29.92;;;21.42;;
26325;SDS011;14032;52.510;7.342;2023-02-13T11:05:59;30.67;;;22.17;;
26325;SDS011;14032;52.510;7.342;2023-02-13T11:08:35;31.35;;;22.08;;
26325;SDS011;14032;52.510;7.342;2023-02-13T11:14:15;30.00;;;20.52;;
26325;SDS011;14032;52.510;7.342;2023-02-13T11:19:28;29.85;;;20.48;;
26325;SDS011;14032;52.510;7.342;2023-02-13T11:21:56;29.42;;;20.70;;
26325;SDS011;14032;52.510;7.342;2023-02-13T11:24:30;26.63;;;20.33;;
26325;SDS011;14032;52.510;7.342;2023-02-13T11:27:01;30.23;;;21.77;;
26325;SDS011;14032;52.510;7.342;2023-02-13T11:29:33;28.52;;;20.48;;
26325;SDS011;14032;52.510;7.342;2023-02-13T11:32:02;29.63;;;21.30;;
26325;SDS011;14032;52.510;7.342;2023-02-13T11:34:42;25.08;;;18.35;;
26325;SDS011;14032;52.510;7.342;2023-02-13T11:39:41;26.25;;;19.88;;
26325;SDS011;14032;52.510;7.342;2023-02-13T11:42:30;27.73;;;19.52;;
26325;SDS011;14032;52.510;7.342;2023-02-13T11:45:04;32.63;;;22.02;;
26325;SDS011;14032;52.510;7.342;2023-02-13T11:47:39;28.15;;;20.08;;
26325;SDS011;14032;52.510;7.342;2023-02-13T11:50:28;28.20;;;20.65;;
26325;SDS011;14032;52.510;7.342;2023-02-13T11:53:19;25.77;;;20.38;;
26325;SDS011;14032;52.510;7.342;2023-02-13T11:56:04;27.33;;;19.70;;
26325;SDS011;14032;52.510;7.342;2023-02-13T11:58:33;26.80;;;20.35;;
26325;SDS011;14032;52.510;7.342;2023-02-13T12:03:43;26.45;;;20.63;;
26325;SDS011;14032;52.510;7.342;2023-02-13T12:06:20;30.10;;;19.98;;
26325;SDS011;14032;52.510;7.342;2023-02-13T12:08:47;25.45;;;18.75;;
26325;SDS011;14032;52.510;7.342;2023-02-13T12:11:30;27.08;;;19.08;;
26325;SDS011;14032;52.510;7.342;2023-02-13T12:14:07;26.45;;;19.50;;
26325;SDS011;14032;52.510;7.342;2023-02-13T12:16:44;27.55;;;19.20;;
26325;SDS011;14032;52.510;7.342;2023-02-13T12:19:19;28.27;;;20.33;;
26325;SDS011;14032;52.510;7.342;2023-02-13T12:25:08;25.20;;;19.17;;
26325;SDS011;14032;52.510;7.342;2023-02-13T12:28:06;24.67;;;18.42;;
26325;SDS011;14032;52.510;7.342;2023-02-13T12:30:58;26.25;;;19.10;;
26325;SDS011;14032;52.510;7.342;2023-02-13T12:42:49;21.58;;;17.42;;
26325;SDS011;14032;52.510;7.342;2023-02-13T12:48:51;24.80;;;18.13;;
26325;SDS011;14032;52.510;7.342;2023-02-13T12:51:24;25.35;;;18.15;;
26325;SDS011;14032;52.510;7.342;2023-02-13T13:00:14;22.65;;;17.10;;
26325;SDS011;14032;52.510;7.342;2023-02-13T13:15:58;22.08;;;16.67;;
26325;SDS011;14032;52.510;7.342;2023-02-13T13:21:47;20.13;;;15.50;;
26325;SDS011;14032;52.510;7.342;2023-02-13T13:24:32;21.27;;;16.50;;
26325;SDS011;14032;52.510;7.342;2023-02-13T13:27:21;23.35;;;16.23;;
26325;SDS011;14032;52.510;7.342;2023-02-13T13:30:11;19.80;;;15.90;;
26325;SDS011;14032;52.510;7.342;2023-02-13T13:32:49;20.75;;;16.02;;
26325;SDS011;14032;52.510;7.342;2023-02-13T13:35:20;22.38;;;16.35;;
26325;SDS011;14032;52.510;7.342;2023-02-13T13:38:10;22.88;;;16.48;;
26325;SDS011;14032;52.510;7.342;2023-02-13T13:41:04;23.35;;;15.50;;
26325;SDS011;14032;52.510;7.342;2023-02-13T13:49:13;23.02;;;14.32;;
26325;SDS011;14032;52.510;7.342;2023-02-13T13:51:42;18.55;;;14.50;;
26325;SDS011;14032;52.510;7.342;2023-02-13T13:59:18;19.05;;;14.70;;
26325;SDS011;14032;52.510;7.342;2023-02-13T14:07:46;22.55;;;15.60;;
26325;SDS011;14032;52.510;7.342;2023-02-13T14:23:29;21.65;;;15.60;;
26325;SDS011;14032;52.510;7.342;2023-02-13T14:28:52;19.30;;;15.15;;
26325;SDS011;14032;52.510;7.342;2023-02-13T14:31:20;18.63;;;15.38;;
26325;SDS011;14032;52.510;7.342;2023-02-13T14:36:22;20.38;;;14.98;;
26325;SDS011;14032;52.510;7.342;2023-02-13T14:38:56;21.00;;;15.95;;
26325;SDS011;14032;52.510;7.342;2023-02-13T14:44:35;18.58;;;14.60;;
26325;SDS011;14032;52.510;7.342;2023-02-13T14:47:18;21.13;;;15.07;;
26325;SDS011;14032;52.510;7.342;2023-02-13T14:49:53;21.42;;;15.90;;
26325;SDS011;14032;52.510;7.342;2023-02-13T14:52:22;23.20;;;16.50;;
26325;SDS011;14032;52.510;7.342;2023-02-13T14:55:11;23.45;;;16.63;;
26325;SDS011;14032;52.510;7.342;2023-02-13T14:57:51;23.75;;;15.38;;
26325;SDS011;14032;52.510;7.342;2023-02-13T15:02:53;20.42;;;15.65;;
26325;SDS011;14032;52.510;7.342;2023-02-13T15:05:23;21.17;;;15.27;;
26325;SDS011;14032;52.510;7.342;2023-02-13T15:08:07;22.67;;;15.15;;
26325;SDS011;14032;52.510;7.342;2023-02-13T15:13:14;18.98;;;15.05;;
26325;SDS011;14032;52.510;7.342;2023-02-13T15:15:42;22.58;;;16.00;;
26325;SDS011;14032;52.510;7.342;2023-02-13T15:18:20;22.75;;;15.73;;
26325;SDS011;14032;52.510;7.342;2023-02-13T15:20:49;20.75;;;15.27;;
26325;SDS011;14032;52.510;7.342;2023-02-13T15:23:23;22.73;;;16.20;;
26325;SDS011;14032;52.510;7.342;2023-02-13T15:26:17;23.73;;;16.67;;
26325;SDS011;14032;52.510;7.342;2023-02-13T15:28:55;22.27;;;15.35;;
26325;SDS011;14032;52.510;7.342;2023-02-13T15:31:30;24.15;;;16.83;;
26325;SDS011;14032;52.510;7.342;2023-02-13T15:33:58;19.92;;;15.35;;
26325;SDS011;14032;52.510;7.342;2023-02-13T15:36:31;20.83;;;15.07;;
26325;SDS011;14032;52.510;7.342;2023-02-13T15:39:05;18.17;;;14.40;;
26325;SDS011;14032;52.510;7.342;2023-02-13T15:41:33;20.60;;;15.48;;
26325;SDS011;14032;52.510;7.342;2023-02-13T15:44:04;23.83;;;17.00;;
26325;SDS011;14032;52.510;7.342;2023-02-13T15:46:31;18.70;;;14.05;;
26325;SDS011;14032;52.510;7.342;2023-02-13T15:49:06;18.98;;;14.25;;
26325;SDS011;14032;52.510;7.342;2023-02-13T15:51:37;19.50;;;14.02;;
26325;SDS011;14032;52.510;7.342;2023-02-13T15:54:06;18.90;;;14.98;;
26325;SDS011;14032;52.510;7.342;2023-02-13T15:56:51;21.75;;;14.85;;
26325;SDS011;14032;52.510;7.342;2023-02-13T15:59:19;20.35;;;14.63;;
26325;SDS011;14032;52.510;7.342;2023-02-13T16:01:45;22.52;;;15.85;;
26325;SDS011;14032;52.510;7.342;2023-02-13T16:04:12;19.75;;;14.75;;
26325;SDS011;14032;52.510;7.342;2023-02-13T16:06:40;18.77;;;14.32;;
26325;SDS011;14032;52.510;7.342;2023-02-13T16:09:20;19.20;;;14.07;;
26325;SDS011;14032;52.510;7.342;2023-02-13T16:12:17;24.00;;;16.42;;
26325;SDS011;14032;52.510;7.342;2023-02-13T16:14:47;19.80;;;14.70;;
26325;SDS011;14032;52.510;7.342;2023-02-13T16:17:15;24.13;;;15.05;;
26325;SDS011;14032;52.510;7.342;2023-02-13T16:24:43;20.90;;;15.27;;
26325;SDS011;14032;52.510;7.342;2023-02-13T16:27:15;21.70;;;15.07;;
26325;SDS011;14032;52.510;7.342;2023-02-13T16:29:44;21.85;;;14.80;;
26325;SDS011;14032;52.510;7.342;2023-02-13T16:32:21;22.83;;;15.23;;
26325;SDS011;14032;52.510;7.342;2023-02-13T16:34:52;22.67;;;15.10;;
26325;SDS011;14032;52.510;7.342;2023-02-13T16:37:26;18.35;;;14.10;;
26325;SDS011;14032;52.510;7.342;2023-02-13T16:39:54;23.07;;;14.90;;
26325;SDS011;14032;52.510;7.342;2023-02-13T16:42:30;22.17;;;15.80;;
26325;SDS011;14032;52.510;7.342;2023-02-13T16:47:47;21.30;;;14.48;;
26325;SDS011;14032;52.510;7.342;2023-02-13T16:50:23;22.50;;;14.88;;
26325;SDS011;14032;52.510;7.342;2023-02-13T16:52:49;23.60;;;16.10;;
26325;SDS011;14032;52.510;7.342;2023-02-13T16:55:15;21.45;;;15.52;;
26325;SDS011;14032;52.510;7.342;2023-02-13T16:57:46;21.80;;;15.32;;
26325;SDS011;14032;52.510;7.342;2023-02-13T17:02:44;22.45;;;15.68;;
26325;SDS011;14032;52.510;7.342;2023-02-13T17:05:15;22.60;;;15.90;;
26325;SDS011;14032;52.510;7.342;2023-02-13T17:07:51;23.05;;;16.33;;
26325;SDS011;14032;52.510;7.342;2023-02-13T17:12:53;25.10;;;17.15;;
26325;SDS011;14032;52.510;7.342;2023-02-13T17:15:22;23.42;;;16.05;;
26325;SDS011;14032;52.510;7.342;2023-02-13T17:17:50;24.55;;;16.15;;
26325;SDS011;14032;52.510;7.342;2023-02-13T17:20:25;22.40;;;15.98;;
26325;SDS011;14032;52.510;7.342;2023-02-13T17:22:54;22.05;;;15.45;;
26325;SDS011;14032;52.510;7.342;2023-02-13T17:25:22;23.58;;;16.80;;
26325;SDS011;14032;52.510;7.342;2023-02-13T17:27:48;20.40;;;15.60;;
26325;SDS011;14032;52.510;7.342;2023-02-13T17:30:16;24.92;;;17.58;;
26325;SDS011;14032;52.510;7.342;2023-02-13T17:32:56;27.23;;;18.20;;
26325;SDS011;14032;52.510;7.342;2023-02-13T17:35:29;23.77;;;16.60;;
26325;SDS011;14032;52.510;7.342;2023-02-13T17:37:55;23.08;;;16.77;;
26325;SDS011;14032;52.510;7.342;2023-02-13T17:40:21;26.00;;;18.23;;
26325;SDS011;14032;52.510;7.342;2023-02-13T17:42:50;24.30;;;16.33;;
26325;SDS011;14032;52.510;7.342;2023-02-13T17:45:18;22.88;;;16.92;;
26325;SDS011;14032;52.510;7.342;2023-02-13T17:47:47;24.27;;;17.88;;
26325;SDS011;14032;52.510;7.342;2023-02-13T17:50:13;25.70;;;17.42;;